Time;durP1;ratioP1;P1;durP2;ratioP2;P2;SDS_P1;SDS_P2;PMS_P1;PMS_P2;Temp;Humidity;BMP_temperature;BMP_pressure;BME280_temperature;BME280_humidity;BME280_pressure;Samples;Min_cycle;Max_cycle;Signal;HPM_P1;HPM_P2
2023/04/16 00:11:23;;;;;;;81.68;74.00;;;;;;;10.23;100.00;100634.84;6207138;23;20513;-94
2023/04/16 00:17:26;;;;;;;80.43;72.20;;;;;;;9.98;100.00;100625.84;6211466;23;20021;-91
2023/04/16 00:20:49;;;;;;;82.18;74.20;;;;;;;9.88;100.00;100630.75;6211134;23;20032;-93
2023/04/16 00:23:47;;;;;;;87.45;78.65;;;;;;;9.94;100.00;100635.25;6103228;23;20122;-93
2023/04/16 00:29:34;;;;;;;82.75;74.70;;;;;;;10.17;100.00;100633.03;6090764;23;20026;-92
2023/04/16 00:41:19;;;;;;;79.70;71.88;;;;;;;10.01;100.00;100636.88;6211587;23;20056;-93
2023/04/16 01:19:35;;;;;;;160.43;104.78;;;;;;;9.23;100.00;100623.31;5595623;22;14480249;-91
2023/04/16 01:22:41;;;;;;;150.23;102.75;;;;;;;9.21;100.00;100638.56;6220570;23;20493;-92
2023/04/16 01:34:34;;;;;;;69.20;61.65;;;;;;;9.00;100.00;100642.16;6207427;23;20028;-91
2023/04/16 01:37:25;;;;;;;70.85;64.10;;;;;;;8.89;100.00;100638.22;6220926;23;20020;-91
2023/04/16 01:40:22;;;;;;;83.88;70.45;;;;;;;8.89;100.00;100637.41;6220523;23;20099;-91
2023/04/16 01:50:02;;;;;;;89.22;73.35;;;;;;;8.66;100.00;100637.72;6126166;23;20129;-92
2023/04/16 01:56:23;;;;;;;82.97;69.18;;;;;;;8.51;100.00;100640.47;6218072;23;20031;-91
2023/04/16 02:02:47;;;;;;;71.40;63.30;;;;;;;8.37;100.00;100652.75;6128584;23;20026;-92
2023/04/16 02:05:56;;;;;;;66.10;59.42;;;;;;;8.31;100.00;100639.50;6206318;23;20030;-92
2023/04/16 02:09:01;;;;;;;69.25;61.95;;;;;;;8.27;100.00;100642.53;6220190;23;20020;-92
2023/04/16 02:15:18;;;;;;;72.90;65.10;;;;;;;8.21;100.00;100631.91;6128711;23;20028;-91
2023/04/16 02:23:59;;;;;;;86.60;78.40;;;;;;;8.37;100.00;100626.31;6210752;23;20054;-90
2023/04/16 02:27:36;;;;;;;;;;;;;;;;;;;;;
2023/04/16 02:30:42;;;;;;;84.47;76.53;;;;;;;8.14;100.00;100620.44;6213657;23;20063;-91
2023/04/16 02:33:46;;;;;;;69.38;62.55;;;;;;;8.24;100.00;100627.03;6204075;23;20017;-92
2023/04/16 02:39:37;;;;;;;75.55;68.35;;;;;;;8.18;100.00;100624.34;6213406;23;20063;-91
2023/04/16 02:42:09;;;;;;;90.60;81.00;;;;;;;8.43;100.00;100624.75;6213871;23;20020;-91
2023/04/16 02:48:08;;;;;;;83.65;73.13;;;;;;;8.20;100.00;100619.66;6121552;23;20033;-92
2023/04/16 02:51:22;;;;;;;83.03;74.93;;;;;;;8.27;100.00;100631.94;6213166;23;20078;-92
2023/04/16 02:54:28;;;;;;;97.47;87.80;;;;;;;8.50;100.00;100628.25;6201646;23;20023;-91
2023/04/16 03:12:09;;;;;;;177.25;114.10;;;;;;;8.50;100.00;100615.00;6131018;23;20482;-91
2023/04/16 03:24:10;;;;;;;113.50;101.93;;;;;;;9.61;100.00;100614.81;6203274;23;20032;-93
2023/04/16 03:30:40;;;;;;;218.95;129.38;;;;;;;9.52;100.00;100618.69;6210390;23;20017;-92
2023/04/16 03:40:00;;;;;;;97.70;86.75;;;;;;;9.52;100.00;100618.69;6146103;23;20032;-92
2023/04/16 03:42:45;;;;;;;83.30;75.05;;;;;;;10.04;100.00;100620.53;6140131;23;20044;-92
2023/04/16 03:57:18;;;;;;;;;;;;;;;9.24;100.00;100634.72;6212011;23;20031;-91
2023/04/16 03:59:59;;;;;;;82.30;72.53;;;;;;;9.31;100.00;100630.25;6213484;23;19915;-92
2023/04/16 04:03:17;;;;;;;81.43;71.60;;;;;;;9.12;100.00;100629.97;6213255;23;20371;-92
2023/04/16 04:05:58;;;;;;;83.15;74.25;;;;;;;9.16;100.00;100630.41;6201808;23;20092;-93
2023/04/16 04:18:54;;;;;;;94.90;85.20;;;;;;;9.12;100.00;100632.63;6167862;23;20028;-92
2023/04/16 04:24:44;;;;;;;79.43;71.90;;;;;;;9.18;100.00;100647.75;6208837;23;20048;-92
2023/04/16 04:30:10;;;;;;;73.65;66.68;;;;;;;9.52;100.00;100650.50;6201682;23;20028;-91
2023/04/16 04:32:37;;;;;;;81.72;74.22;;;;;;;9.62;100.00;100649.09;6211071;23;20096;-92
2023/04/16 04:35:05;;;;;;;94.05;85.50;;;;;;;9.71;100.00;100654.19;6206794;23;20024;-92
2023/04/16 04:37:33;;;;;;;98.72;90.53;;;;;;;9.98;100.00;100652.38;6210041;23;20368;-92
2023/04/16 04:40:00;;;;;;;101.20;92.63;;;;;;;10.04;100.00;100651.56;6211049;23;20017;-92
2023/04/16 04:42:27;;;;;;;98.28;89.65;;;;;;;9.95;100.00;100655.44;6210551;23;20021;-92
2023/04/16 04:44:54;;;;;;;90.70;81.60;;;;;;;10.16;100.00;100665.06;6211497;23;20020;-92
2023/04/16 04:50:35;;;;;;;93.35;85.18;;;;;;;10.30;100.00;100656.91;6217966;23;20020;-95
2023/04/16 04:53:23;;;;;;;89.30;81.50;;;;;;;10.43;100.00;100657.94;6223441;23;20036;-93
2023/04/16 04:59:24;;;;;;;97.43;88.75;;;;;;;10.88;100.00;100668.66;6202551;23;20025;-91
2023/04/16 05:01:57;;;;;;;100.97;91.97;;;;;;;11.09;100.00;100665.72;6219028;23;20100;-91
2023/04/16 05:07:19;;;;;;;110.97;101.97;;;;;;;11.43;100.00;100672.53;6200517;23;20043;-92
2023/04/16 05:13:07;;;;;;;116.05;106.38;;;;;;;11.29;100.00;100660.34;6216098;23;20028;-91
2023/04/16 05:18:28;;;;;;;117.22;107.55;;;;;;;11.85;100.00;100667.59;6212514;23;20024;-92
2023/04/16 05:20:55;;;;;;;134.18;122.05;;;;;;;11.99;100.00;100664.88;6213291;23;20024;-91
2023/04/16 05:23:21;;;;;;;131.15;119.85;;;;;;;11.98;100.00;100668.53;6212343;23;20371;-92
2023/04/16 05:25:50;;;;;;;146.25;132.73;;;;;;;12.08;100.00;100656.41;6212226;23;20024;-91
2023/04/16 05:28:16;;;;;;;145.13;131.43;;;;;;;12.30;100.00;100669.31;6212504;23;20019;-92
2023/04/16 05:30:44;;;;;;;136.40;123.80;;;;;;;12.52;100.00;100661.75;6214016;23;20059;-92
2023/04/16 05:33:11;;;;;;;155.48;139.85;;;;;;;12.64;100.00;100662.63;6211723;23;20036;-93
2023/04/16 05:35:40;;;;;;;131.98;120.03;;;;;;;12.77;100.00;100664.38;6211571;23;20020;-91
2023/04/16 05:38:10;;;;;;;131.35;120.70;;;;;;;12.95;100.00;100666.19;6211299;23;20012;-92
2023/04/16 05:40:40;;;;;;;134.57;124.18;;;;;;;13.03;100.00;100668.56;6211911;23;20016;-92
2023/04/16 05:43:08;;;;;;;136.27;126.28;;;;;;;13.14;100.00;100665.16;6211826;23;20013;-92
2023/04/16 05:45:39;;;;;;;129.55;120.22;;;;;;;13.12;100.00;100666.44;6211470;23;20494;-93
2023/04/16 05:48:10;;;;;;;126.80;117.25;;;;;;;13.38;100.00;100665.31;6211641;23;20017;-92
2023/04/16 05:50:50;;;;;;;135.63;123.15;;;;;;;13.54;100.00;100670.00;6216030;23;20019;-92
2023/04/16 05:59:02;;;;;;;156.52;143.25;;;;;;;14.22;100.00;100652.78;6211349;23;20079;-93
2023/04/16 06:01:29;;;;;;;145.65;134.40;;;;;;;14.35;100.00;100659.75;6215042;23;20012;-93
2023/04/16 06:03:56;;;;;;;132.27;122.47;;;;;;;14.53;100.00;100654.31;6214468;23;20099;-94
2023/04/16 06:06:23;;;;;;;128.05;118.20;;;;;;;14.61;100.00;100656.63;6211520;23;20043;-93
2023/04/16 06:08:50;;;;;;;126.07;117.07;;;;;;;14.77;100.00;100659.63;6214146;23;20017;-92
2023/04/16 06:11:16;;;;;;;116.00;106.72;;;;;;;14.78;100.00;100654.03;6213643;23;20013;-92
2023/04/16 06:13:44;;;;;;;122.35;113.18;;;;;;;14.83;100.00;100648.81;6213058;23;20016;-93
2023/04/16 06:16:12;;;;;;;138.02;127.88;;;;;;;14.94;100.00;100640.97;6214563;23;20092;-92
2023/04/16 06:18:39;;;;;;;137.93;127.50;;;;;;;14.95;100.00;100646.09;6212818;23;20031;-93
2023/04/16 06:21:06;;;;;;;117.03;107.43;;;;;;;14.96;100.00;100650.41;6213705;23;20025;-93
2023/04/16 06:23:33;;;;;;;110.13;101.78;;;;;;;14.98;100.00;100645.63;6214143;23;20059;-92
2023/04/16 06:26:00;;;;;;;113.43;104.88;;;;;;;15.05;100.00;100651.66;6211842;23;20482;-92
2023/04/16 06:28:27;;;;;;;121.93;113.03;;;;;;;15.17;100.00;100640.91;6212557;23;20024;-92
2023/04/16 06:30:54;;;;;;;110.20;101.88;;;;;;;15.15;100.00;100639.53;6212327;23;20020;-94
2023/04/16 06:33:23;;;;;;;105.28;96.60;;;;;;;15.22;100.00;100643.69;6212314;23;20016;-93
2023/04/16 06:35:50;;;;;;;106.50;98.53;;;;;;;15.27;100.00;100642.97;6212530;23;20017;-93
2023/04/16 06:38:17;;;;;;;113.40;104.93;;;;;;;15.43;100.00;100646.75;6213003;23;20017;-94
2023/04/16 06:40:43;;;;;;;96.35;89.07;;;;;;;15.47;100.00;100645.22;6212165;23;20016;-93
2023/04/16 06:43:10;;;;;;;104.18;96.00;;;;;;;15.60;100.00;100650.28;6211101;23;20012;-90
2023/04/16 06:45:37;;;;;;;91.28;83.93;;;;;;;15.65;100.00;100647.69;6213441;23;20023;-93
2023/04/16 06:48:05;;;;;;;102.22;93.60;;;;;;;15.78;100.00;100652.75;6213615;23;20021;-92
2023/04/16 06:50:33;;;;;;;97.18;89.40;;;;;;;15.81;100.00;100656.84;6214310;23;20023;-92
2023/04/16 06:53:00;;;;;;;100.03;90.65;;;;;;;15.82;100.00;100658.44;6227856;23;20078;-92
2023/04/16 06:55:47;;;;;;;99.38;91.18;;;;;;;15.94;100.00;100661.88;6217968;23;20078;-92
2023/04/16 06:58:14;;;;;;;100.25;91.95;;;;;;;15.89;100.00;100664.47;6213276;23;20348;-92
2023/04/16 07:00:41;;;;;;;134.85;120.30;;;;;;;15.92;100.00;100664.00;6212618;23;20016;-91
2023/04/16 07:03:10;;;;;;;114.53;103.60;;;;;;;15.98;100.00;100657.66;6212023;23;20013;-92
2023/04/16 07:05:39;;;;;;;108.25;96.97;;;;;;;15.98;100.00;100657.66;6210619;23;20036;-93
2023/04/16 07:08:06;;;;;;;200.70;139.02;;;;;;;16.05;100.00;100656.69;6211339;23;20071;-91
2023/04/16 07:10:33;;;;;;;113.57;94.43;;;;;;;16.05;100.00;100654.00;6212457;23;20027;-92
2023/04/16 07:13:01;;;;;;;118.68;97.97;;;;;;;16.07;100.00;100658.06;6211796;23;20367;-93
2023/04/16 07:15:28;;;;;;;200.75;133.18;;;;;;;16.14;100.00;100656.03;6212216;23;20028;-92
2023/04/16 07:17:55;;;;;;;103.25;88.55;;;;;;;16.14;100.00;100664.06;6211587;23;20025;-93
2023/04/16 07:20:22;;;;;;;163.15;121.57;;;;;;;16.20;100.00;100652.38;6211425;23;20027;-92
2023/04/16 07:22:53;;;;;;;110.95;91.80;;;;;;;16.27;100.00;100658.38;6211143;23;20066;-92
2023/04/16 07:25:20;;;;;;;61.15;55.95;;;;;;;16.32;100.00;100654.16;6211871;23;20016;-92
2023/04/16 07:27:47;;;;;;;64.32;58.42;;;;;;;16.38;100.00;100655.88;6212042;23;20021;-92
2023/04/16 07:34:13;;;;;;;;;;;;;;;;;;;;;
2023/04/16 07:46:28;;;;;;;46.55;41.63;;;;;;;17.34;100.00;100632.16;6211868;23;20089;-94
2023/04/16 07:48:55;;;;;;;45.17;36.55;;;;;;;17.69;100.00;100640.81;6211925;23;20543;-92
2023/04/16 07:51:23;;;;;;;43.53;38.33;;;;;;;17.81;100.00;100628.84;6210851;23;20083;-94
2023/04/16 07:53:50;;;;;;;38.47;34.67;;;;;;;18.06;100.00;100635.50;6211135;23;20071;-94
2023/04/16 07:56:18;;;;;;;33.15;28.67;;;;;;;18.11;100.00;100626.66;6210328;23;20024;-94
2023/04/16 07:58:48;;;;;;;44.40;39.58;;;;;;;18.49;100.00;100639.03;6211640;23;20418;-94
2023/04/16 08:01:14;;;;;;;40.13;34.08;;;;;;;18.67;100.00;100638.59;6211738;23;20017;-93
2023/04/16 08:03:42;;;;;;;32.08;28.77;;;;;;;18.34;100.00;100638.94;6211160;23;20071;-94
2023/04/16 08:06:09;;;;;;;34.00;25.77;;;;;;;18.84;100.00;100630.34;6208556;23;20016;-92
2023/04/16 08:08:36;;;;;;;29.02;25.95;;;;;;;19.10;100.00;100643.91;6210614;23;20016;-92
2023/04/16 08:11:03;;;;;;;28.50;25.58;;;;;;;18.95;100.00;100637.38;6209988;23;20017;-92
2023/04/16 08:13:31;;;;;;;30.88;27.63;;;;;;;19.18;100.00;100635.28;6211423;23;20017;-93
2023/04/16 08:15:58;;;;;;;28.27;24.92;;;;;;;19.42;100.00;100639.13;6211149;23;20215;-93
2023/04/16 08:18:25;;;;;;;29.73;26.13;;;;;;;19.31;100.00;100639.38;6211535;23;20510;-93
2023/04/16 08:20:52;;;;;;;28.85;24.10;;;;;;;18.92;100.00;100634.41;6211527;23;20021;-94
2023/04/16 08:23:19;;;;;;;25.50;22.60;;;;;;;19.27;100.00;100628.31;6211995;23;20028;-94
2023/04/16 08:25:47;;;;;;;27.40;24.85;;;;;;;19.59;100.00;100641.56;6210404;23;20020;-93
2023/04/16 08:28:49;;;;;;;27.30;24.75;;;;;;;19.90;100.00;100637.03;6211501;23;20024;-94
2023/04/16 08:31:19;;;;;;;29.27;24.27;;;;;;;20.02;100.00;100630.56;6209264;23;20024;-94
2023/04/16 08:33:46;;;;;;;30.05;24.35;;;;;;;20.34;100.00;100630.28;6210213;23;20020;-92
2023/04/16 08:36:13;;;;;;;24.85;22.50;;;;;;;20.27;100.00;100630.56;6208885;23;20024;-93
2023/04/16 08:38:40;;;;;;;25.13;22.40;;;;;;;20.48;100.00;100622.41;6209321;23;20021;-93
2023/04/16 08:41:12;;;;;;;26.95;23.10;;;;;;;20.49;100.00;100621.34;6207281;23;20017;-94
2023/04/16 08:50:45;;;;;;;24.83;22.38;;;;;;;20.82;100.00;100625.31;6206823;23;20098;-94
2023/04/16 09:05:25;;;;;;;24.60;22.50;;;;;;;20.99;100.00;100616.84;6198422;23;20025;-93
2023/04/16 09:07:53;;;;;;;24.90;22.42;;;;;;;21.21;100.00;100617.28;6209310;23;20099;-93
2023/04/16 09:10:20;;;;;;;25.52;22.52;;;;;;;21.00;100.00;100618.47;6212123;23;20348;-93
2023/04/16 09:12:47;;;;;;;24.20;21.75;;;;;;;21.12;100.00;100618.13;6212432;23;20439;-94
2023/04/16 09:15:28;;;;;;;28.60;24.13;;;;;;;20.95;100.00;100619.28;6211986;23;20021;-93
2023/04/16 09:17:56;;;;;;;25.70;23.00;;;;;;;20.72;100.00;100614.53;6211874;23;20031;-92
2023/04/16 09:20:25;;;;;;;27.20;24.50;;;;;;;21.29;100.00;100615.88;6212130;23;20021;-94
2023/04/16 09:22:52;;;;;;;24.42;21.70;;;;;;;20.98;100.00;100604.44;6211508;23;20479;-93
2023/04/16 09:25:26;;;;;;;24.33;21.83;;;;;;;21.34;100.00;100604.22;6211773;23;20414;-93
2023/04/16 09:27:53;;;;;;;26.30;23.55;;;;;;;21.19;100.00;100594.31;6212085;23;20019;-93
2023/04/16 09:30:22;;;;;;;30.25;21.38;;;;;;;21.59;100.00;100593.25;6213749;23;20344;-93
2023/04/16 09:32:49;;;;;;;27.23;22.08;;;;;;;22.19;100.00;100590.31;6213708;23;20075;-93
2023/04/16 09:35:20;;;;;;;25.10;22.52;;;;;;;20.98;100.00;100593.63;6213730;23;20045;-92
2023/04/16 09:38:07;;;;;;;24.15;21.40;;;;;;;21.93;100.00;100587.03;6212651;23;20073;-93
2023/04/16 09:40:34;;;;;;;24.15;21.17;;;;;;;22.35;97.63;100599.88;6213799;23;20021;-93
2023/04/16 09:43:11;;;;;;;23.63;20.13;;;;;;;22.73;100.00;100585.66;6213423;23;20027;-93
2023/04/16 09:45:51;;;;;;;24.90;20.10;;;;;;;21.88;100.00;100596.00;6213875;23;20016;-93
2023/04/16 09:48:28;;;;;;;24.45;21.85;;;;;;;21.44;100.00;100587.97;6213744;23;20031;-93
2023/04/16 09:50:58;;;;;;;25.17;22.25;;;;;;;21.82;100.00;100589.03;6213586;23;20070;-93
2023/04/16 09:57:13;;;;;;;22.52;20.25;;;;;;;20.99;100.00;100573.66;6092703;23;20411;-94
2023/04/16 09:59:40;;;;;;;23.45;21.00;;;;;;;20.90;100.00;100562.63;6199661;23;20038;-93
2023/04/16 10:02:18;;;;;;;23.08;20.45;;;;;;;21.48;100.00;100578.19;6213370;23;20020;-93
2023/04/16 10:07:49;;;;;;;21.70;19.70;;;;;;;21.52;100.00;100557.66;6208004;23;20042;-93
2023/04/16 10:10:17;;;;;;;22.27;20.20;;;;;;;21.95;100.00;100560.50;6213214;23;20037;-93
2023/04/16 10:12:43;;;;;;;24.38;21.98;;;;;;;21.77;100.00;100551.22;6213790;23;20032;-92
2023/04/16 10:15:11;;;;;;;25.35;21.75;;;;;;;22.25;100.00;100550.50;6214093;23;20024;-93
2023/04/16 10:17:39;;;;;;;27.33;21.42;;;;;;;22.01;100.00;100547.75;6213430;23;20024;-93
2023/04/16 10:20:10;;;;;;;23.92;19.98;;;;;;;22.34;100.00;100548.78;6213562;23;20021;-94
2023/04/16 10:22:37;;;;;;;24.13;20.80;;;;;;;22.20;100.00;100545.94;6213169;23;20473;-93
2023/04/16 10:28:34;;;;;;;21.67;18.98;;;;;;;21.49;100.00;100558.22;6100876;23;20387;-93
2023/04/16 10:31:02;;;;;;;22.23;19.83;;;;;;;20.96;100.00;100548.00;6213233;23;20479;-93
2023/04/16 10:33:34;;;;;;;21.02;19.00;;;;;;;20.46;100.00;100539.06;6213205;23;20020;-93
2023/04/16 10:36:08;;;;;;;24.08;21.58;;;;;;;20.06;100.00;100543.50;6213439;23;20040;-93
2023/04/16 10:38:38;;;;;;;25.02;21.60;;;;;;;20.20;100.00;100535.63;6213289;23;20024;-93
2023/04/16 10:41:06;;;;;;;25.42;21.73;;;;;;;19.75;100.00;100545.41;6213230;23;20017;-93
2023/04/16 10:43:45;;;;;;;25.90;21.67;;;;;;;20.22;100.00;100544.28;6212931;23;20024;-93
2023/04/16 10:46:26;;;;;;;23.42;20.88;;;;;;;19.59;100.00;100560.75;6213181;23;20028;-94
2023/04/16 10:48:54;;;;;;;25.75;22.58;;;;;;;19.45;100.00;100557.81;6213555;23;20027;-92
2023/04/16 10:51:27;;;;;;;25.48;22.77;;;;;;;19.55;100.00;100564.28;6213213;23;20025;-93
2023/04/16 10:53:54;;;;;;;26.48;24.10;;;;;;;19.54;100.00;100568.03;6213201;23;20580;-93
2023/04/16 10:56:25;;;;;;;29.85;22.73;;;;;;;19.68;100.00;100578.03;6213367;23;20016;-94
2023/04/16 10:58:57;;;;;;;24.23;21.33;;;;;;;19.54;100.00;100574.22;6213914;23;20421;-93
2023/04/16 11:01:31;;;;;;;24.53;22.10;;;;;;;19.10;100.00;100582.00;6213930;23;20486;-94
2023/04/16 11:04:21;;;;;;;28.40;24.55;;;;;;;19.12;100.00;100575.28;6213438;23;20078;-93
2023/04/16 11:07:01;;;;;;;29.95;22.30;;;;;;;19.06;100.00;100578.19;6213329;23;20020;-95
2023/04/16 11:10:03;;;;;;;23.85;21.10;;;;;;;19.06;100.00;100578.19;6212644;23;20044;-93
2023/04/16 11:12:36;;;;;;;25.70;23.13;;;;;;;18.96;100.00;100585.16;6212908;23;20016;-94
2023/04/16 11:15:20;;;;;;;25.38;22.23;;;;;;;18.44;100.00;100569.88;6212161;23;20025;-93
2023/04/16 11:18:19;;;;;;;24.73;21.77;;;;;;;18.57;100.00;100584.72;6214079;23;20055;-93
2023/04/16 11:21:08;;;;;;;27.65;24.73;;;;;;;18.06;100.00;100576.38;6212570;23;20032;-93
2023/04/16 11:24:02;;;;;;;23.35;21.05;;;;;;;17.78;100.00;100586.38;6211002;23;20021;-93
2023/04/16 11:27:15;;;;;;;29.70;24.70;;;;;;;17.43;100.00;100581.50;6212308;23;20540;-93
2023/04/16 11:30:22;;;;;;;28.23;25.65;;;;;;;17.18;100.00;100590.09;6204925;23;20016;-93
2023/04/16 11:33:16;;;;;;;26.92;24.55;;;;;;;17.51;100.00;100585.59;6212124;23;20075;-93
2023/04/16 11:45:19;;;;;;;31.50;28.58;;;;;;;17.05;100.00;100556.44;6206039;23;20063;-93
2023/04/16 11:48:16;;;;;;;33.13;29.80;;;;;;;17.08;100.00;100550.56;6207416;23;20639;-93
2023/04/16 12:02:39;;;;;;;33.08;30.23;;;;;;;16.68;100.00;100513.38;6200087;23;20067;-93
2023/04/16 12:05:25;;;;;;;61.70;56.42;;;;;;;16.86;100.00;100518.41;6207641;23;20025;-93
2023/04/16 12:07:53;;;;;;;37.33;34.38;;;;;;;17.24;100.00;100507.78;6207960;23;20103;-94
2023/04/16 12:10:20;;;;;;;34.22;31.13;;;;;;;17.39;100.00;100510.59;6207564;23;20021;-92
2023/04/16 12:12:47;;;;;;;29.83;27.17;;;;;;;17.74;100.00;100515.44;6208400;23;20028;-93
2023/04/16 12:15:14;;;;;;;33.22;30.23;;;;;;;17.97;100.00;100505.38;6208190;23;20028;-93
2023/04/16 12:17:41;;;;;;;29.33;26.70;;;;;;;18.21;100.00;100513.84;6206619;23;20020;-93
2023/04/16 12:20:12;;;;;;;25.75;23.65;;;;;;;18.40;100.00;100498.09;6207334;23;20352;-93
2023/04/16 12:22:40;;;;;;;25.88;23.58;;;;;;;19.07;100.00;100497.19;6206785;23;20035;-94
2023/04/16 12:25:12;;;;;;;25.30;22.98;;;;;;;18.94;100.00;100489.63;6207385;23;20268;-93
2023/04/16 12:27:53;;;;;;;22.33;20.23;;;;;;;19.17;100.00;100502.56;6210360;23;20061;-92
2023/04/16 12:30:22;;;;;;;23.33;20.92;;;;;;;19.64;100.00;100492.63;6212564;23;20263;-94
2023/04/16 12:36:17;;;;;;;22.67;20.88;;;;;;;20.03;100.00;100476.66;6189585;23;20021;-93
2023/04/16 12:38:53;;;;;;;21.65;19.65;;;;;;;19.82;100.00;100485.88;6211115;23;20082;-94
2023/04/16 12:41:22;;;;;;;22.67;20.40;;;;;;;20.21;100.00;100480.66;6211943;23;20074;-94
2023/04/16 12:53:57;;;;;;;20.90;18.95;;;;;;;20.28;100.00;100474.94;6212272;23;20409;-93
2023/04/16 12:56:32;;;;;;;21.40;19.60;;;;;;;20.02;100.00;100476.91;6211801;23;20020;-94
2023/04/16 12:58:59;;;;;;;19.88;18.23;;;;;;;19.81;100.00;100476.16;6212304;23;20027;-93
2023/04/16 13:01:26;;;;;;;20.35;18.63;;;;;;;19.35;100.00;100473.50;6212296;23;20021;-93
2023/04/16 13:03:52;;;;;;;20.85;19.23;;;;;;;19.10;100.00;100485.91;6212365;23;20044;-93
2023/04/16 13:06:20;;;;;;;21.70;19.77;;;;;;;19.18;100.00;100489.91;6210541;23;20107;-93
2023/04/16 13:08:47;;;;;;;21.55;19.77;;;;;;;19.29;100.00;100479.97;6206803;23;20028;-93
2023/04/16 13:11:14;;;;;;;21.17;19.25;;;;;;;19.17;100.00;100480.25;6205430;23;20020;-94
2023/04/16 13:13:42;;;;;;;27.05;24.52;;;;;;;19.15;100.00;100493.16;6207504;23;20024;-93
2023/04/16 13:16:10;;;;;;;21.95;20.05;;;;;;;19.26;100.00;100489.41;6206653;23;20016;-94
2023/04/16 13:18:38;;;;;;;19.40;17.80;;;;;;;19.32;100.00;100485.63;6206669;23;20029;-93
2023/04/16 13:21:05;;;;;;;20.60;18.95;;;;;;;19.23;100.00;100485.34;6207734;23;20034;-94
2023/04/16 13:23:32;;;;;;;18.65;17.25;;;;;;;19.30;100.00;100481.59;6205955;23;20016;-94
2023/04/16 13:25:59;;;;;;;20.83;18.98;;;;;;;19.31;100.00;100480.53;6209869;23;20071;-93
2023/04/16 13:28:30;;;;;;;18.67;17.27;;;;;;;19.55;100.00;100470.81;6211376;23;20016;-94
2023/04/16 13:30:59;;;;;;;27.95;25.50;;;;;;;19.71;100.00;100476.19;6212675;23;20071;-93
2023/04/16 13:33:39;;;;;;;22.58;20.75;;;;;;;19.54;100.00;100485.34;6212367;23;20032;-93
2023/04/16 13:36:09;;;;;;;18.60;17.00;;;;;;;19.60;100.00;100473.47;6213117;23;20027;-93
2023/04/16 13:38:36;;;;;;;19.10;17.70;;;;;;;19.44;100.00;100474.59;6212611;23;20036;-93
2023/04/16 13:41:03;;;;;;;19.23;17.58;;;;;;;19.56;100.00;100471.63;6213326;23;20478;-93
2023/04/16 13:43:30;;;;;;;18.77;17.30;;;;;;;19.33;100.00;100468.38;6212533;23;20019;-93
2023/04/16 13:46:13;;;;;;;19.25;17.85;;;;;;;19.24;100.00;100472.69;6212659;23;20013;-94
2023/04/16 13:48:51;;;;;;;19.10;17.58;;;;;;;19.48;100.00;100466.75;6212599;23;20017;-93
2023/04/16 13:52:02;;;;;;;17.85;16.48;;;;;;;19.23;100.00;100471.09;6212054;23;20028;-94
2023/04/16 13:54:37;;;;;;;18.92;17.52;;;;;;;19.35;100.00;100462.75;6212568;23;20016;-94
2023/04/16 13:57:04;;;;;;;19.38;17.88;;;;;;;19.64;100.00;100454.91;6213367;23;20023;-93
2023/04/16 13:59:31;;;;;;;19.55;18.00;;;;;;;19.95;100.00;100463.75;6212625;23;20027;-94
2023/04/16 14:04:41;;;;;;;18.95;17.30;;;;;;;20.75;100.00;100473.66;6205802;23;20027;-94
2023/04/16 14:07:08;;;;;;;18.02;16.63;;;;;;;20.50;100.00;100479.97;6213034;23;20027;-94
2023/04/16 14:09:36;;;;;;;20.13;18.30;;;;;;;21.04;100.00;100474.53;6212859;23;20012;-93
2023/04/16 14:12:03;;;;;;;19.73;18.00;;;;;;;21.47;100.00;100479.34;6212644;23;20017;-94
2023/04/16 14:14:33;;;;;;;21.02;19.25;;;;;;;21.42;100.00;100482.91;6213241;23;20025;-94
2023/04/16 14:17:03;;;;;;;21.00;19.25;;;;;;;20.21;100.00;100477.13;6213782;23;20017;-93
2023/04/16 14:19:30;;;;;;;23.45;21.45;;;;;;;19.42;100.00;100476.72;6214265;23;20023;-94
2023/04/16 14:22:09;;;;;;;28.90;26.70;;;;;;;20.00;100.00;100471.00;6216652;23;20024;-93
2023/04/16 14:24:36;;;;;;;25.40;23.40;;;;;;;19.90;100.00;100477.22;6215404;23;20028;-94
2023/04/16 14:27:21;;;;;;;21.15;19.48;;;;;;;21.21;100.00;100471.44;6215337;23;20020;-93
2023/04/16 14:29:49;;;;;;;22.20;20.40;;;;;;;20.82;100.00;100474.16;6214066;23;20016;-93
2023/04/16 14:32:18;;;;;;;22.13;20.23;;;;;;;19.98;100.00;100467.78;6215162;23;20017;-94
2023/04/16 14:34:45;;;;;;;21.38;19.25;;;;;;;18.91;100.00;100482.91;6214731;23;20028;-94
2023/04/16 14:37:17;;;;;;;20.48;18.63;;;;;;;17.96;100.00;100482.28;6215392;23;20047;-93
2023/04/16 14:39:44;;;;;;;25.42;23.33;;;;;;;18.64;100.00;100475.03;6214164;23;20016;-95
2023/04/16 14:42:19;;;;;;;23.38;21.30;;;;;;;17.55;100.00;100479.28;6214565;23;20044;-94
2023/04/16 14:44:52;;;;;;;28.77;26.38;;;;;;;17.95;100.00;100478.78;6214596;23;20016;-94
2023/04/16 14:47:23;;;;;;;27.42;25.02;;;;;;;17.72;100.00;100474.56;6214911;23;20031;-93
2023/04/16 14:49:50;;;;;;;28.63;26.45;;;;;;;17.66;100.00;100477.50;6211976;23;20019;-92
2023/04/16 14:52:16;;;;;;;33.40;30.67;;;;;;;17.81;100.00;100483.00;6212526;23;20012;-92
2023/04/16 14:54:43;;;;;;;44.60;40.90;;;;;;;17.62;100.00;100490.63;6214076;23;20024;-92
2023/04/16 14:57:13;;;;;;;45.05;41.42;;;;;;;17.12;100.00;100492.63;6214355;23;20020;-92
2023/04/16 14:59:40;;;;;;;28.42;26.42;;;;;;;16.52;100.00;100490.09;6213969;23;20016;-92
2023/04/16 15:02:07;;;;;;;51.60;47.53;;;;;;;17.21;100.00;100498.34;6214600;23;20467;-92
2023/04/16 15:04:36;;;;;;;34.55;31.50;;;;;;;17.19;100.00;100492.44;6214008;23;20012;-93
2023/04/16 15:07:02;;;;;;;51.00;46.85;;;;;;;17.14;100.00;100484.34;6213696;23;20019;-92
2023/04/16 15:09:31;;;;;;;61.30;56.58;;;;;;;17.34;100.00;100491.78;6213786;23;20012;-92
2023/04/16 15:11:58;;;;;;;44.47;40.63;;;;;;;17.21;100.00;100487.63;6213847;23;20013;-93
2023/04/16 15:14:25;;;;;;;57.40;52.90;;;;;;;17.24;100.00;100488.97;6214794;23;20012;-92
2023/04/16 15:16:53;;;;;;;51.00;46.75;;;;;;;17.24;100.00;100488.97;6213727;23;20023;-92
2023/04/16 15:19:19;;;;;;;60.55;55.40;;;;;;;17.23;100.00;100492.75;6213885;23;20017;-92
2023/04/16 15:21:48;;;;;;;46.47;42.78;;;;;;;17.04;100.00;100500.34;6213781;23;20031;-92
2023/04/16 15:24:16;;;;;;;46.60;42.83;;;;;;;16.98;100.00;100504.06;6212418;23;20016;-92
2023/04/16 15:26:47;;;;;;;48.55;44.05;;;;;;;17.09;100.00;100509.25;6210443;23;20028;-93
2023/04/16 15:29:14;;;;;;;53.67;49.67;;;;;;;16.96;100.00;100517.72;6211112;23;20020;-90
2023/04/16 15:31:41;;;;;;;45.60;41.83;;;;;;;16.70;100.00;100509.38;6210626;23;20020;-91
2023/04/16 15:34:08;;;;;;;42.33;39.08;;;;;;;16.60;100.00;100514.59;6210975;23;20020;-92
2023/04/16 15:36:55;;;;;;;53.97;46.50;;;;;;;16.79;100.00;100517.78;6210906;23;20019;-92
2023/04/16 15:39:24;;;;;;;62.35;57.58;;;;;;;16.74;100.00;100514.22;6210999;23;20020;-92
2023/04/16 15:41:51;;;;;;;48.10;44.40;;;;;;;16.68;100.00;100518.72;6212324;23;20093;-92
2023/04/16 15:44:35;;;;;;;54.75;50.00;;;;;;;16.49;100.00;100527.09;6213075;23;20019;-93
2023/04/16 15:47:02;;;;;;;57.55;53.03;;;;;;;16.24;100.00;100529.44;6213804;23;20027;-92
2023/04/16 15:49:31;;;;;;;50.95;46.20;;;;;;;15.95;100.00;100523.41;6213773;23;20020;-92
2023/04/16 15:51:59;;;;;;;60.38;55.58;;;;;;;16.08;100.00;100530.28;6213275;23;20351;-92
2023/04/16 15:54:27;;;;;;;50.40;45.97;;;;;;;15.98;100.00;100539.00;6213589;23;20024;-91
2023/04/16 15:56:54;;;;;;;62.65;57.85;;;;;;;15.84;100.00;100527.00;6213298;23;20024;-92